createdAt,value
2018-07-28T00:00:58.721Z,0.00
2018-07-28T00:01:58.696Z,0.00
2018-07-28T00:02:58.676Z,0.00
2018-07-28T00:03:58.654Z,0.00
2018-07-28T00:04:58.636Z,0.00
2018-07-28T00:05:58.612Z,0.00
2018-07-28T00:06:58.589Z,0.00
2018-07-28T00:07:58.567Z,0.00
2018-07-28T00:08:58.544Z,0.00
2018-07-28T00:09:58.518Z,0.00
2018-07-28T00:10:58.499Z,0.00
2018-07-28T00:11:58.474Z,0.00
2018-07-28T00:12:58.456Z,0.00
2018-07-28T00:13:58.437Z,0.00
2018-07-28T00:14:58.407Z,0.00
2018-07-28T00:15:58.389Z,0.00
2018-07-28T00:16:58.371Z,0.00
2018-07-28T00:17:58.341Z,0.00
2018-07-28T00:18:58.321Z,0.00
2018-07-28T00:19:58.299Z,0.00
2018-07-28T00:20:58.278Z,0.00
2018-07-28T00:21:58.252Z,0.00
2018-07-28T00:22:58.233Z,0.00
2018-07-28T00:23:58.215Z,0.00
2018-07-28T00:24:58.186Z,0.00
2018-07-28T00:25:58.167Z,0.00
2018-07-28T00:26:58.150Z,0.00
2018-07-28T00:27:58.118Z,0.00
2018-07-28T00:28:58.104Z,0.00
2018-07-28T00:29:58.073Z,0.00
2018-07-28T00:30:58.057Z,0.00
2018-07-28T00:31:58.032Z,0.00
2018-07-28T00:32:58.004Z,0.00
2018-07-28T00:33:57.993Z,0.00
2018-07-28T00:34:57.967Z,0.00
2018-07-28T00:35:57.945Z,0.00
2018-07-28T00:36:57.919Z,0.00
2018-07-28T00:37:57.901Z,0.00
2018-07-28T00:38:57.878Z,0.00
2018-07-28T00:39:57.855Z,0.00
2018-07-28T00:40:57.841Z,0.00
2018-07-28T00:41:57.811Z,0.00
2018-07-28T00:42:57.793Z,0.00
2018-07-28T00:43:57.763Z,0.00
2018-07-28T00:44:57.741Z,0.00
2018-07-28T00:45:57.729Z,0.00
2018-07-28T00:46:57.696Z,0.00
2018-07-28T00:47:57.682Z,0.00
2018-07-28T00:48:57.661Z,0.00
2018-07-28T00:49:57.629Z,0.00
2018-07-28T00:50:57.615Z,0.00
2018-07-28T00:51:57.585Z,0.00
2018-07-28T00:52:57.581Z,0.00
2018-07-28T00:53:57.555Z,0.00
2018-07-28T00:54:57.525Z,0.00
2018-07-28T00:55:57.624Z,0.00
2018-07-28T00:56:57.481Z,0.00
2018-07-28T00:57:57.451Z,0.00
2018-07-28T00:58:57.438Z,0.00
2018-07-28T00:59:57.408Z,0.00
2018-07-28T01:00:57.395Z,0.00
2018-07-28T01:01:57.376Z,0.00
2018-07-28T01:02:57.345Z,0.00
2018-07-28T01:03:57.316Z,0.00
2018-07-28T01:04:57.305Z,0.00
2018-07-28T01:05:57.274Z,0.00
2018-07-28T01:06:57.257Z,0.00
2018-07-28T01:07:57.234Z,0.00
2018-07-28T01:08:57.212Z,0.00
2018-07-28T01:09:57.192Z,0.00
2018-07-28T01:10:57.163Z,0.00
2018-07-28T01:11:57.148Z,0.00
2018-07-28T01:12:57.115Z,0.00
2018-07-28T01:13:57.096Z,0.00
2018-07-28T01:14:57.083Z,0.00
2018-07-28T01:15:57.050Z,0.00
2018-07-28T01:16:57.035Z,0.00
2018-07-28T01:17:57.013Z,0.00
2018-07-28T01:18:56.988Z,0.00
2018-07-28T01:19:56.970Z,0.00
2018-07-28T01:20:56.939Z,0.00
2018-07-28T01:21:56.923Z,0.00
2018-07-28T01:22:56.897Z,0.00
2018-07-28T01:23:56.876Z,0.00
2018-07-28T01:24:56.852Z,0.00
2018-07-28T01:25:56.838Z,0.00
2018-07-28T01:26:56.808Z,0.00
2018-07-28T01:27:56.792Z,0.00
2018-07-28T01:28:56.776Z,0.00
2018-07-28T01:29:56.751Z,0.00
2018-07-28T01:30:56.717Z,0.00
2018-07-28T01:31:56.704Z,0.00
2018-07-28T01:32:56.671Z,0.00
2018-07-28T01:33:56.656Z,0.00
2018-07-28T01:34:56.633Z,0.00
2018-07-28T01:35:56.603Z,0.00
2018-07-28T01:36:56.588Z,0.00
2018-07-28T01:37:56.570Z,0.00
2018-07-28T01:38:56.536Z,0.00
2018-07-28T01:39:56.519Z,0.00
2018-07-28T01:40:56.496Z,0.00
2018-07-28T01:41:56.478Z,0.00
2018-07-28T01:42:56.448Z,0.00
2018-07-28T01:43:56.430Z,0.00
2018-07-28T01:44:56.408Z,0.00
2018-07-28T01:45:56.388Z,0.00
2018-07-28T01:46:56.362Z,0.00
2018-07-28T01:47:56.334Z,0.00
2018-07-28T01:48:56.322Z,0.00
2018-07-28T01:49:56.304Z,0.00
2018-07-28T01:50:56.269Z,0.00
2018-07-28T01:51:56.253Z,0.00
2018-07-28T01:52:56.229Z,0.00
2018-07-28T01:53:56.204Z,0.00
2018-07-28T01:54:56.191Z,0.00
2018-07-28T01:55:56.163Z,0.00
2018-07-28T01:56:56.142Z,0.00
2018-07-28T01:57:56.114Z,0.00
2018-07-28T01:58:56.099Z,0.00
2018-07-28T01:59:56.071Z,0.00
2018-07-28T02:00:56.046Z,0.00
2018-07-28T02:01:56.026Z,0.00
2018-07-28T02:02:56.007Z,0.00
2018-07-28T02:03:55.985Z,0.00
2018-07-28T02:04:55.953Z,0.00
2018-07-28T02:05:55.937Z,0.00
2018-07-28T02:06:55.913Z,0.00
2018-07-28T02:07:55.887Z,0.00
2018-07-28T02:08:55.867Z,0.00
2018-07-28T02:09:55.851Z,0.00
2018-07-28T02:10:55.825Z,0.00
2018-07-28T02:11:55.808Z,0.00
2018-07-28T02:12:55.776Z,0.00
2018-07-28T02:13:55.754Z,0.00
2018-07-28T02:14:55.741Z,0.00
2018-07-28T02:15:55.718Z,0.00
2018-07-28T02:16:55.686Z,0.00
2018-07-28T02:17:55.661Z,0.00
2018-07-28T02:18:55.649Z,0.00
2018-07-28T02:19:55.625Z,0.00
2018-07-28T02:20:55.603Z,0.00
2018-07-28T02:21:55.580Z,0.00
2018-07-28T02:22:55.549Z,0.00
2018-07-28T02:23:55.528Z,0.00
2018-07-28T02:24:55.504Z,0.00
2018-07-28T02:25:55.481Z,0.00
2018-07-28T02:26:55.462Z,0.00
2018-07-28T02:27:55.446Z,0.00
2018-07-28T02:28:55.494Z,0.00
2018-07-28T02:29:55.394Z,0.00
2018-07-28T02:30:55.379Z,0.00
2018-07-28T02:31:55.349Z,0.00
2018-07-28T02:32:55.334Z,0.00
2018-07-28T02:33:55.306Z,0.00
2018-07-28T02:34:55.287Z,0.00
2018-07-28T02:35:55.262Z,0.00
2018-07-28T02:36:55.241Z,0.00
2018-07-28T02:37:55.219Z,0.00
2018-07-28T02:38:55.193Z,0.00
2018-07-28T02:39:55.175Z,0.00
2018-07-28T02:40:55.153Z,0.00
2018-07-28T02:41:55.128Z,0.00
2018-07-28T02:42:55.104Z,0.00
2018-07-28T02:43:55.081Z,0.00
2018-07-28T02:44:55.060Z,0.00
2018-07-28T02:45:55.041Z,0.00
2018-07-28T02:46:55.014Z,0.00
2018-07-28T02:47:54.996Z,0.00
2018-07-28T02:48:54.965Z,0.00
2018-07-28T02:49:54.952Z,0.00
2018-07-28T02:50:54.925Z,0.00
2018-07-28T02:51:54.904Z,0.00
2018-07-28T02:52:54.884Z,0.00
2018-07-28T02:53:54.855Z,0.00
2018-07-28T02:54:54.831Z,0.00
2018-07-28T02:55:54.821Z,0.00
2018-07-28T02:56:54.794Z,0.00
2018-07-28T02:57:54.764Z,0.00
2018-07-28T02:58:54.756Z,0.00
2018-07-28T02:59:54.721Z,0.00
2018-07-28T03:00:54.704Z,0.00
2018-07-28T03:01:54.679Z,0.00
2018-07-28T03:02:54.652Z,0.00
2018-07-28T03:03:54.632Z,0.00
2018-07-28T03:04:54.614Z,0.00
2018-07-28T03:05:54.592Z,0.00
2018-07-28T03:06:54.565Z,0.00
2018-07-28T03:07:54.540Z,0.00
2018-07-28T03:08:54.522Z,0.00
2018-07-28T03:09:54.494Z,0.00
2018-07-28T03:10:54.472Z,0.00
2018-07-28T03:11:54.449Z,0.00
2018-07-28T03:12:54.434Z,0.00
2018-07-28T03:13:54.409Z,0.00
2018-07-28T03:14:54.389Z,0.00
2018-07-28T03:15:54.363Z,0.00
2018-07-28T03:16:54.341Z,0.00
2018-07-28T03:17:54.330Z,4.00
2018-07-28T03:18:54.292Z,0.00
2018-07-28T03:19:54.276Z,0.00
2018-07-28T03:20:54.246Z,0.00
2018-07-28T03:21:54.230Z,4.00
2018-07-28T03:22:54.204Z,0.00
2018-07-28T03:23:54.184Z,4.00
2018-07-28T03:24:54.161Z,4.00
2018-07-28T03:25:54.144Z,4.00
2018-07-28T03:26:54.110Z,4.00
2018-07-28T03:27:54.096Z,4.00
2018-07-28T03:28:54.066Z,8.00
2018-07-28T03:29:54.044Z,8.00
2018-07-28T03:30:54.024Z,8.00
2018-07-28T03:31:54.003Z,8.00
2018-07-28T03:32:53.978Z,8.00
2018-07-28T03:33:53.964Z,12.00
2018-07-28T03:34:53.933Z,16.00
2018-07-28T03:35:53.909Z,16.00
2018-07-28T03:36:53.884Z,16.00
2018-07-28T03:37:53.868Z,20.00
2018-07-28T03:38:53.840Z,24.00
2018-07-28T03:39:53.821Z,24.00
2018-07-28T03:40:53.789Z,28.00
2018-07-28T03:41:53.778Z,32.00
2018-07-28T03:42:53.749Z,32.00
2018-07-28T03:43:53.735Z,36.00
2018-07-28T03:44:53.706Z,40.00
2018-07-28T03:45:53.677Z,44.00
2018-07-28T03:46:53.652Z,48.00
2018-07-28T03:47:53.634Z,52.00
2018-07-28T03:48:53.612Z,56.00
2018-07-28T03:49:53.596Z,64.00
2018-07-28T03:50:53.561Z,68.00
2018-07-28T03:51:53.540Z,72.00
2018-07-28T03:52:53.519Z,76.00
2018-07-28T03:53:53.495Z,84.00
2018-07-28T03:54:53.471Z,84.00
2018-07-28T03:55:53.443Z,92.00
2018-07-28T03:56:53.429Z,100.00
2018-07-28T03:57:53.401Z,104.00
2018-07-28T03:58:53.384Z,112.00
2018-07-28T03:59:53.352Z,116.00
2018-07-28T04:00:53.334Z,124.00
2018-07-28T04:01:53.376Z,132.00
2018-07-28T04:02:53.286Z,136.00
2018-07-28T04:03:53.261Z,144.00
2018-07-28T04:04:53.242Z,152.00
2018-07-28T04:05:53.213Z,156.00
2018-07-28T04:06:53.223Z,164.00
2018-07-28T04:07:53.166Z,176.00
2018-07-28T04:08:53.146Z,184.00
2018-07-28T04:09:53.121Z,192.00
2018-07-28T04:10:53.103Z,200.00
2018-07-28T04:11:53.084Z,204.00
2018-07-28T04:12:53.057Z,216.00
2018-07-28T04:13:53.097Z,224.00
2018-07-28T04:14:53.002Z,232.00
2018-07-28T04:15:52.981Z,240.00
2018-07-28T04:16:52.960Z,252.00
2018-07-28T04:17:52.937Z,260.00
2018-07-28T04:18:52.912Z,264.00
2018-07-28T04:19:52.886Z,276.00
2018-07-28T04:20:52.878Z,284.00
2018-07-28T04:21:52.851Z,292.00
2018-07-28T04:22:52.823Z,300.00
2018-07-28T04:23:52.792Z,308.00
2018-07-28T04:24:52.776Z,320.00
2018-07-28T04:25:52.754Z,328.00
2018-07-28T04:26:52.727Z,332.00
2018-07-28T04:27:52.710Z,340.00
2018-07-28T04:28:52.683Z,348.00
2018-07-28T04:29:52.657Z,360.00
2018-07-28T04:30:52.637Z,372.00
2018-07-28T04:31:52.606Z,384.00
2018-07-28T04:32:52.586Z,396.00
2018-07-28T04:33:53.450Z,404.00
2018-07-28T04:34:52.540Z,420.00
2018-07-28T04:35:52.515Z,428.00
2018-07-28T04:36:52.496Z,444.00
2018-07-28T04:37:52.476Z,448.00
2018-07-28T04:38:52.447Z,452.00
2018-07-28T04:39:52.422Z,464.00
2018-07-28T04:40:52.405Z,472.00
2018-07-28T04:41:52.381Z,484.00
2018-07-28T04:42:52.354Z,488.00
2018-07-28T04:43:52.376Z,500.00
2018-07-28T04:44:52.313Z,504.00
2018-07-28T04:45:52.302Z,516.00
2018-07-28T04:46:52.446Z,524.00
2018-07-28T04:47:52.241Z,528.00
2018-07-28T04:48:52.212Z,540.00
2018-07-28T04:49:52.185Z,548.00
2018-07-28T04:50:52.173Z,556.00
2018-07-28T04:51:52.143Z,564.00
2018-07-28T04:52:52.131Z,572.00
2018-07-28T04:53:52.093Z,584.00
2018-07-28T04:54:52.079Z,592.00
2018-07-28T04:55:52.050Z,600.00
2018-07-28T04:56:52.038Z,608.00
2018-07-28T04:57:52.004Z,616.00
2018-07-28T04:58:51.983Z,620.00
2018-07-28T04:59:52.017Z,628.00
2018-07-28T05:00:51.936Z,636.00
2018-07-28T05:01:51.914Z,644.00
2018-07-28T05:02:51.896Z,652.00
2018-07-28T05:03:51.863Z,664.00
2018-07-28T05:04:51.847Z,672.00
2018-07-28T05:05:51.826Z,680.00
2018-07-28T05:06:51.796Z,688.00
2018-07-28T05:07:51.772Z,696.00
2018-07-28T05:08:51.751Z,704.00
2018-07-28T05:09:51.726Z,712.00
2018-07-28T05:10:51.712Z,720.00
2018-07-28T05:11:51.677Z,728.00
2018-07-28T05:12:51.785Z,732.00
2018-07-28T05:13:51.632Z,740.00
2018-07-28T05:14:51.617Z,748.00
2018-07-28T05:15:52.238Z,752.00
2018-07-28T05:16:51.576Z,760.00
2018-07-28T05:17:51.541Z,764.00
2018-07-28T05:18:51.520Z,768.00
2018-07-28T05:19:51.501Z,776.00
2018-07-28T05:20:51.476Z,780.00
2018-07-28T05:21:51.445Z,788.00
2018-07-28T05:22:51.433Z,796.00
2018-07-28T05:23:51.429Z,804.00
2018-07-28T05:24:51.378Z,812.00
2018-07-28T05:25:51.358Z,820.00
2018-07-28T05:26:51.336Z,828.00
2018-07-28T05:27:51.310Z,832.00
2018-07-28T05:28:51.294Z,840.00
2018-07-28T05:29:51.271Z,844.00
2018-07-28T05:30:51.239Z,852.00
2018-07-28T05:31:51.218Z,864.00
2018-07-28T05:32:51.197Z,868.00
2018-07-28T05:33:51.170Z,876.00
2018-07-28T05:34:51.154Z,880.00
2018-07-28T05:35:51.121Z,888.00
2018-07-28T05:36:51.103Z,896.00
2018-07-28T05:37:51.089Z,904.00
2018-07-28T05:38:51.060Z,912.00
2018-07-28T05:39:51.032Z,920.00
2018-07-28T05:40:51.013Z,928.00
2018-07-28T05:41:50.996Z,936.00
2018-07-28T05:42:50.965Z,948.00
2018-07-28T05:43:50.941Z,968.00
2018-07-28T05:44:50.919Z,992.00
2018-07-28T05:45:50.898Z,1028.00
2018-07-28T05:46:50.878Z,1084.00
2018-07-28T05:47:50.856Z,1148.00
2018-07-28T05:48:50.830Z,1212.00
2018-07-28T05:49:50.803Z,1304.00
2018-07-28T05:50:50.841Z,1448.00
2018-07-28T05:51:50.761Z,1600.00
2018-07-28T05:52:50.738Z,1716.00
2018-07-28T05:53:50.716Z,1856.00
2018-07-28T05:54:50.688Z,1860.00
2018-07-28T05:55:50.670Z,1824.00
2018-07-28T05:56:50.643Z,1720.00
2018-07-28T05:57:50.620Z,1604.00
2018-07-28T05:58:50.602Z,1448.00
2018-07-28T05:59:50.568Z,1340.00
2018-07-28T06:00:50.555Z,1244.00
2018-07-28T06:01:50.528Z,1164.00
2018-07-28T06:02:50.583Z,1076.00
2018-07-28T06:03:50.485Z,1016.00
2018-07-28T06:04:50.460Z,1008.00
2018-07-28T06:05:50.446Z,1000.00
2018-07-28T06:06:50.419Z,980.00
2018-07-28T06:07:50.393Z,952.00
2018-07-28T06:08:50.372Z,912.00
2018-07-28T06:09:50.350Z,896.00
2018-07-28T06:10:50.346Z,872.00
2018-07-28T06:11:50.309Z,828.00
2018-07-28T06:12:50.287Z,808.00
2018-07-28T06:13:50.259Z,760.00
2018-07-28T06:14:50.229Z,692.00
2018-07-28T06:15:50.215Z,628.00
2018-07-28T06:16:50.184Z,572.00
2018-07-28T06:17:50.165Z,532.00
2018-07-28T06:18:50.141Z,496.00
2018-07-28T06:19:50.121Z,488.00
2018-07-28T06:20:50.091Z,492.00
2018-07-28T06:21:50.081Z,504.00
2018-07-28T06:22:50.046Z,552.00
2018-07-28T06:23:50.032Z,568.00
2018-07-28T06:24:49.998Z,644.00
2018-07-28T06:25:49.992Z,724.00
2018-07-28T06:26:49.999Z,780.00
2018-07-28T06:27:49.943Z,860.00
2018-07-28T06:28:49.914Z,932.00
2018-07-28T06:29:49.885Z,992.00
2018-07-28T06:30:49.870Z,1036.00
2018-07-28T06:31:49.925Z,1080.00
2018-07-28T06:32:49.816Z,1108.00
2018-07-28T06:33:49.794Z,1096.00
2018-07-28T06:34:49.773Z,1084.00
2018-07-28T06:35:49.751Z,1104.00
2018-07-28T06:36:49.719Z,1100.00
2018-07-28T06:37:49.697Z,1080.00
2018-07-28T06:38:49.686Z,1088.00
2018-07-28T06:39:49.659Z,1080.00
2018-07-28T06:40:49.637Z,1048.00
2018-07-28T06:41:49.631Z,1008.00
2018-07-28T06:42:49.601Z,968.00
2018-07-28T06:43:49.560Z,928.00
2018-07-28T06:44:49.576Z,956.00
2018-07-28T06:45:49.523Z,988.00
2018-07-28T06:46:49.493Z,968.00
2018-07-28T06:47:49.476Z,984.00
2018-07-28T06:48:49.442Z,956.00
2018-07-28T06:49:49.428Z,860.00
2018-07-28T06:50:49.402Z,732.00
2018-07-28T06:51:49.382Z,660.00
2018-07-28T06:52:49.355Z,608.00
2018-07-28T06:53:49.434Z,596.00
2018-07-28T06:54:49.305Z,592.00
2018-07-28T06:55:49.282Z,588.00
2018-07-28T06:56:49.257Z,604.00
2018-07-28T06:57:49.238Z,624.00
2018-07-28T06:58:49.212Z,664.00
2018-07-28T06:59:49.191Z,700.00
2018-07-28T07:00:49.164Z,720.00
2018-07-28T07:01:49.139Z,728.00
2018-07-28T07:02:49.127Z,712.00
2018-07-28T07:03:49.092Z,676.00
2018-07-28T07:04:49.092Z,660.00
2018-07-28T07:05:49.047Z,616.00
2018-07-28T07:06:49.028Z,592.00
2018-07-28T07:07:49.001Z,552.00
2018-07-28T07:08:48.982Z,508.00
2018-07-28T07:09:48.950Z,464.00
2018-07-28T07:10:48.936Z,424.00
2018-07-28T07:11:48.909Z,400.00
2018-07-28T07:12:48.900Z,380.00
2018-07-28T07:13:48.869Z,372.00
2018-07-28T07:14:48.842Z,376.00
2018-07-28T07:15:48.818Z,368.00
2018-07-28T07:16:48.792Z,376.00
2018-07-28T07:17:48.773Z,400.00
2018-07-28T07:18:48.746Z,420.00
2018-07-28T07:19:48.731Z,452.00
2018-07-28T07:20:48.693Z,500.00
2018-07-28T07:21:48.676Z,568.00
2018-07-28T07:22:48.649Z,660.00
2018-07-28T07:23:48.633Z,784.00
2018-07-28T07:24:48.647Z,940.00
2018-07-28T07:25:48.581Z,1128.00
2018-07-28T07:26:48.560Z,1340.00
2018-07-28T07:27:48.530Z,1560.00
2018-07-28T07:28:48.514Z,1768.00
2018-07-28T07:29:48.492Z,1976.00
2018-07-28T07:30:48.462Z,2156.00
2018-07-28T07:31:48.442Z,2220.00
2018-07-28T07:32:48.413Z,2280.00
2018-07-28T07:33:48.393Z,2276.00
2018-07-28T07:34:48.370Z,2332.00
2018-07-28T07:35:48.345Z,2388.00
2018-07-28T07:36:48.318Z,2472.00
2018-07-28T07:37:48.303Z,2664.00
2018-07-28T07:38:48.277Z,2824.00
2018-07-28T07:39:48.257Z,2904.00
2018-07-28T07:40:48.294Z,2988.00
2018-07-28T07:41:48.222Z,3064.00
2018-07-28T07:42:48.176Z,3096.00
2018-07-28T07:43:49.167Z,3088.00
2018-07-28T07:44:48.135Z,3056.00
2018-07-28T07:45:48.105Z,3036.00
2018-07-28T07:46:48.087Z,3040.00
2018-07-28T07:47:48.061Z,3036.00
2018-07-28T07:48:48.036Z,3016.00
2018-07-28T07:49:48.029Z,3020.00
2018-07-28T07:50:47.984Z,3028.00
2018-07-28T07:51:47.967Z,3040.00
2018-07-28T07:52:47.942Z,3084.00
2018-07-28T07:53:47.966Z,3120.00
2018-07-28T07:54:47.893Z,3140.00
2018-07-28T07:55:47.873Z,3184.00
2018-07-28T07:56:47.846Z,3208.00
2018-07-28T07:57:47.822Z,3224.00
2018-07-28T07:58:47.806Z,3244.00
2018-07-28T07:59:47.780Z,3248.00
2018-07-28T08:00:47.755Z,3300.00
2018-07-28T08:01:47.733Z,3300.00
2018-07-28T08:02:47.713Z,3320.00
2018-07-28T08:03:47.677Z,3332.00
2018-07-28T08:04:47.668Z,3320.00
2018-07-28T08:05:47.633Z,3240.00
2018-07-28T08:06:47.616Z,3172.00
2018-07-28T08:07:47.587Z,3092.00
2018-07-28T08:08:47.568Z,3064.00
2018-07-28T08:09:47.541Z,3032.00
2018-07-28T08:10:47.520Z,3004.00
2018-07-28T08:11:47.491Z,2980.00
2018-07-28T08:12:47.589Z,2924.00
2018-07-28T08:13:47.448Z,2872.00
2018-07-28T08:14:47.425Z,2876.00
2018-07-28T08:15:47.396Z,2796.00
2018-07-28T08:16:47.371Z,2688.00
2018-07-28T08:17:47.364Z,2548.00
2018-07-28T08:18:47.329Z,2400.00
2018-07-28T08:19:47.460Z,2288.00
2018-07-28T08:20:47.284Z,2172.00
2018-07-28T08:21:47.265Z,2104.00
2018-07-28T08:22:47.236Z,2028.00
2018-07-28T08:23:47.215Z,1960.00
2018-07-28T08:24:47.197Z,1956.00
2018-07-28T08:25:47.170Z,2008.00
2018-07-28T08:26:47.161Z,2016.00
2018-07-28T08:27:47.117Z,2008.00
2018-07-28T08:28:47.100Z,2152.00
2018-07-28T08:29:47.080Z,2380.00
2018-07-28T08:30:47.054Z,2692.00
2018-07-28T08:31:47.031Z,3024.00
2018-07-28T08:32:47.018Z,3200.00
2018-07-28T08:33:46.995Z,3324.00
2018-07-28T08:34:46.970Z,3296.00
2018-07-28T08:35:46.951Z,3352.00
2018-07-28T08:36:46.932Z,3360.00
2018-07-28T08:37:46.975Z,3332.00
2018-07-28T08:38:46.870Z,3368.00
2018-07-28T08:39:46.942Z,3428.00
2018-07-28T08:40:46.829Z,3444.00
2018-07-28T08:41:46.803Z,3480.00
2018-07-28T08:42:46.785Z,3512.00
2018-07-28T08:43:46.753Z,3536.00
2018-07-28T08:44:46.729Z,3552.00
2018-07-28T08:45:46.705Z,3604.00
2018-07-28T08:46:46.677Z,3648.00
2018-07-28T08:47:46.655Z,3700.00
2018-07-28T08:48:46.697Z,3696.00
2018-07-28T08:49:46.609Z,3744.00
2018-07-28T08:50:46.634Z,3808.00
2018-07-28T08:51:46.564Z,3748.00
2018-07-28T08:52:46.547Z,3696.00
2018-07-28T08:53:46.510Z,3612.00
2018-07-28T08:54:46.564Z,3300.00
2018-07-28T08:55:46.466Z,3028.00
2018-07-28T08:56:46.465Z,2732.00
2018-07-28T08:57:46.423Z,2504.00
2018-07-28T08:58:46.406Z,2420.00
2018-07-28T08:59:46.377Z,2612.00
2018-07-28T09:00:47.835Z,2768.00
2018-07-28T09:01:46.330Z,2764.00
2018-07-28T09:02:46.313Z,2696.00
2018-07-28T09:03:46.289Z,2676.00
2018-07-28T09:04:46.259Z,2640.00
2018-07-28T09:05:46.239Z,2472.00
2018-07-28T09:06:46.227Z,2268.00
2018-07-28T09:07:46.199Z,1976.00
2018-07-28T09:08:46.167Z,1664.00
2018-07-28T09:09:46.157Z,1428.00
2018-07-28T09:10:46.124Z,1324.00
2018-07-28T09:11:46.101Z,1304.00
2018-07-28T09:12:46.086Z,1364.00
2018-07-28T09:13:46.063Z,1452.00
2018-07-28T09:14:46.035Z,1564.00
2018-07-28T09:15:46.022Z,1828.00
2018-07-28T09:16:45.991Z,2132.00
2018-07-28T09:17:45.965Z,2428.00
2018-07-28T09:18:45.940Z,2644.00
2018-07-28T09:19:45.913Z,2700.00
2018-07-28T09:20:45.892Z,2768.00
2018-07-28T09:21:45.870Z,2788.00
2018-07-28T09:22:45.848Z,2836.00
2018-07-28T09:23:45.828Z,3108.00
2018-07-28T09:24:45.803Z,3568.00
2018-07-28T09:25:45.777Z,4004.00
2018-07-28T09:26:45.772Z,4232.00
2018-07-28T09:27:45.729Z,4400.00
2018-07-28T09:28:45.710Z,4500.00
2018-07-28T09:29:45.685Z,4568.00
2018-07-28T09:30:45.653Z,4572.00
2018-07-28T09:31:45.632Z,4556.00
2018-07-28T09:32:45.613Z,4496.00
2018-07-28T09:33:45.585Z,4412.00
2018-07-28T09:34:45.562Z,4344.00
2018-07-28T09:35:45.536Z,4344.00
2018-07-28T09:36:45.522Z,4432.00
2018-07-28T09:37:45.519Z,4612.00
2018-07-28T09:38:45.472Z,4808.00
2018-07-28T09:39:45.447Z,4968.00
2018-07-28T09:40:45.430Z,5044.00
2018-07-28T09:41:45.406Z,5040.00
2018-07-28T09:42:45.382Z,5092.00
2018-07-28T09:43:45.362Z,5032.00
2018-07-28T09:44:45.334Z,5008.00
2018-07-28T09:45:45.305Z,4968.00
2018-07-28T09:46:45.288Z,4948.00
2018-07-28T09:47:45.259Z,4812.00
2018-07-28T09:48:45.249Z,4684.00
2018-07-28T09:49:45.214Z,4664.00
2018-07-28T09:50:45.193Z,4596.00
2018-07-28T09:51:45.168Z,4548.00
2018-07-28T09:52:45.154Z,4512.00
2018-07-28T09:53:45.122Z,4544.00
2018-07-28T09:54:45.105Z,4528.00
2018-07-28T09:55:45.074Z,4528.00
2018-07-28T09:56:45.062Z,4532.00
2018-07-28T09:57:45.026Z,4452.00
2018-07-28T09:58:45.016Z,4328.00
2018-07-28T09:59:45.008Z,4332.00
2018-07-28T10:00:44.967Z,4428.00
2018-07-28T10:01:44.936Z,4688.00
2018-07-28T10:02:44.920Z,4924.00
2018-07-28T10:03:44.951Z,5088.00
2018-07-28T10:04:44.875Z,5232.00
2018-07-28T10:05:44.850Z,5148.00
2018-07-28T10:06:44.824Z,5188.00
2018-07-28T10:07:44.795Z,5328.00
2018-07-28T10:08:44.780Z,5276.00
2018-07-28T10:09:44.762Z,5144.00
2018-07-28T10:10:44.727Z,5068.00
2018-07-28T10:11:44.736Z,4980.00
2018-07-28T10:12:44.687Z,4932.00
2018-07-28T10:13:44.668Z,4816.00
2018-07-28T10:14:44.635Z,4564.00
2018-07-28T10:15:44.615Z,4488.00
2018-07-28T10:16:44.607Z,4168.00
2018-07-28T10:17:44.572Z,4084.00
2018-07-28T10:18:44.593Z,4268.00
2018-07-28T10:19:44.524Z,4756.00
2018-07-28T10:20:44.510Z,5104.00
2018-07-28T10:21:44.482Z,5228.00
2018-07-28T10:22:44.506Z,5084.00
2018-07-28T10:23:44.473Z,4784.00
2018-07-28T10:24:44.433Z,4552.00
2018-07-28T10:25:44.383Z,4396.00
2018-07-28T10:26:44.365Z,4604.00
2018-07-28T10:27:44.346Z,5116.00
2018-07-28T10:28:44.327Z,5152.00
2018-07-28T10:29:44.302Z,4912.00
2018-07-28T10:30:44.275Z,4692.00
2018-07-28T10:31:44.250Z,4492.00
2018-07-28T10:32:44.228Z,4448.00
2018-07-28T10:33:44.210Z,4312.00
2018-07-28T10:34:44.180Z,4240.00
2018-07-28T10:35:44.164Z,4148.00
2018-07-28T10:36:44.191Z,4124.00
2018-07-28T10:37:44.116Z,4216.00
2018-07-28T10:38:44.102Z,4172.00
2018-07-28T10:39:44.107Z,4348.00
2018-07-28T10:40:44.054Z,4400.00
2018-07-28T10:41:44.039Z,4320.00
2018-07-28T10:42:44.008Z,4376.00
2018-07-28T10:43:43.983Z,4476.00
2018-07-28T10:44:43.981Z,4580.00
2018-07-28T10:45:44.012Z,4468.00
2018-07-28T10:46:43.919Z,4184.00
2018-07-28T10:47:43.889Z,3840.00
2018-07-28T10:48:43.869Z,3400.00
2018-07-28T10:49:43.844Z,3024.00
2018-07-28T10:50:43.830Z,2824.00
2018-07-28T10:51:43.807Z,2696.00
2018-07-28T10:52:43.785Z,2672.00
2018-07-28T10:53:43.757Z,2596.00
2018-07-28T10:54:43.737Z,2412.00
2018-07-28T10:55:43.753Z,2164.00
2018-07-28T10:56:43.694Z,2004.00
2018-07-28T10:57:43.669Z,1968.00
2018-07-28T10:58:43.655Z,2064.00
2018-07-28T10:59:43.620Z,2120.00
2018-07-28T11:00:43.615Z,2120.00
2018-07-28T11:01:43.579Z,2068.00
2018-07-28T11:02:43.558Z,2060.00
2018-07-28T11:03:43.535Z,2156.00
2018-07-28T11:04:43.513Z,2308.00
2018-07-28T11:05:43.493Z,2548.00
2018-07-28T11:06:43.461Z,2876.00
2018-07-28T11:07:43.447Z,3248.00
2018-07-28T11:08:43.423Z,3772.00
2018-07-28T11:09:43.399Z,4292.00
2018-07-28T11:10:43.384Z,4700.00
2018-07-28T11:11:43.352Z,5044.00
2018-07-28T11:12:43.342Z,5112.00
2018-07-28T11:13:43.315Z,4836.00
2018-07-28T11:14:43.292Z,4304.00
2018-07-28T11:15:43.275Z,3736.00
2018-07-28T11:16:43.245Z,3216.00
2018-07-28T11:17:43.224Z,2844.00
2018-07-28T11:18:43.266Z,2588.00
2018-07-28T11:19:43.209Z,2412.00
2018-07-28T11:20:43.152Z,2356.00
2018-07-28T11:21:43.128Z,2360.00
2018-07-28T11:22:43.207Z,2336.00
2018-07-28T11:23:43.091Z,2316.00
2018-07-28T11:24:43.066Z,2344.00
2018-07-28T11:25:43.053Z,2432.00
2018-07-28T11:26:43.022Z,2532.00
2018-07-28T11:27:43.006Z,2672.00
2018-07-28T11:28:42.981Z,2804.00
2018-07-28T11:29:42.957Z,2924.00
2018-07-28T11:30:42.931Z,2912.00
2018-07-28T11:31:42.943Z,2768.00
2018-07-28T11:32:42.895Z,2624.00
2018-07-28T11:33:42.866Z,2420.00
2018-07-28T11:34:42.841Z,2404.00
2018-07-28T11:35:42.823Z,2512.00
2018-07-28T11:36:42.797Z,2620.00
2018-07-28T11:37:42.782Z,2608.00
2018-07-28T11:38:42.749Z,2504.00
2018-07-28T11:39:42.741Z,2416.00
2018-07-28T11:40:42.709Z,2368.00
2018-07-28T11:41:42.682Z,2296.00
2018-07-28T11:42:42.662Z,2352.00
2018-07-28T11:43:42.640Z,2352.00
2018-07-28T11:44:42.626Z,2388.00
2018-07-28T11:45:42.611Z,2444.00
2018-07-28T11:46:42.577Z,2544.00
2018-07-28T11:47:42.553Z,2656.00
2018-07-28T11:48:42.527Z,2756.00
2018-07-28T11:49:42.510Z,3012.00
2018-07-28T11:50:42.490Z,2560.00
2018-07-28T11:51:42.461Z,2428.00
2018-07-28T11:52:42.442Z,2324.00
2018-07-28T11:53:42.416Z,2504.00
2018-07-28T11:54:42.405Z,2400.00
2018-07-28T11:55:42.373Z,2152.00
2018-07-28T11:56:42.355Z,2196.00
2018-07-28T11:57:42.331Z,2228.00
2018-07-28T11:58:42.316Z,2356.00
2018-07-28T11:59:42.291Z,2492.00
2018-07-28T12:00:42.265Z,2812.00
2018-07-28T12:01:42.253Z,3228.00
2018-07-28T12:02:42.225Z,3612.00
2018-07-28T12:03:42.191Z,3852.00
2018-07-28T12:04:42.182Z,3408.00
2018-07-28T12:05:42.153Z,3156.00
2018-07-28T12:06:42.133Z,3504.00
2018-07-28T12:07:42.112Z,3716.00
2018-07-28T12:08:42.108Z,4280.00
2018-07-28T12:09:42.081Z,4744.00
2018-07-28T12:10:42.037Z,4440.00
2018-07-28T12:11:42.026Z,4180.00
2018-07-28T12:12:42.029Z,4376.00
2018-07-28T12:13:41.981Z,4264.00
2018-07-28T12:14:41.953Z,4144.00
2018-07-28T12:15:41.933Z,3596.00
2018-07-28T12:16:41.940Z,3228.00
2018-07-28T12:17:41.887Z,2904.00
2018-07-28T12:18:41.870Z,2824.00
2018-07-28T12:19:41.868Z,2544.00
2018-07-28T12:20:41.821Z,2448.00
2018-07-28T12:21:41.800Z,2392.00
2018-07-28T12:22:41.780Z,2188.00
2018-07-28T12:23:41.765Z,2440.00
2018-07-28T12:24:41.729Z,2808.00
2018-07-28T12:25:41.706Z,3048.00
2018-07-28T12:26:41.703Z,3144.00
2018-07-28T12:27:41.702Z,3400.00
2018-07-28T12:28:41.644Z,3244.00
2018-07-28T12:29:41.635Z,3040.00
2018-07-28T12:30:41.608Z,2560.00
2018-07-28T12:31:41.599Z,2516.00